createdAt,value
2022-11-08T00:01:29.921Z,13.50
2022-11-08T00:06:51.406Z,12.50
2022-11-08T00:12:12.937Z,11.83
2022-11-08T00:17:17.697Z,11.28
2022-11-08T00:22:21.092Z,10.83
2022-11-08T00:27:25.306Z,10.43
2022-11-08T00:32:28.702Z,10.09
2022-11-08T00:37:31.855Z,9.85
2022-11-08T00:42:34.773Z,9.67
2022-11-08T00:47:37.667Z,9.50
2022-11-08T00:52:40.576Z,9.37
2022-11-08T00:58:00.382Z,10.46
2022-11-08T01:03:18.922Z,13.77
2022-11-08T01:08:23.207Z,13.95
2022-11-08T01:13:26.261Z,12.46
2022-11-08T01:18:29.192Z,11.58
2022-11-08T01:23:34.176Z,10.99
2022-11-08T01:28:37.415Z,10.50
2022-11-08T01:33:40.522Z,10.14
2022-11-08T01:38:43.574Z,9.84
2022-11-08T01:43:55.616Z,9.59
2022-11-08T01:49:12.015Z,9.39
2022-11-08T01:54:21.302Z,9.19
2022-11-08T01:59:24.870Z,8.99
2022-11-08T02:04:30.550Z,8.84
2022-11-08T02:09:38.041Z,9.90
2022-11-08T02:14:40.987Z,13.20
2022-11-08T02:19:47.196Z,13.79
2022-11-08T02:24:50.189Z,12.16
2022-11-08T02:29:54.834Z,11.19
2022-11-08T02:35:02.997Z,10.58
2022-11-08T02:40:09.043Z,10.11
2022-11-08T02:45:12.072Z,9.70
2022-11-08T02:50:14.981Z,9.34
2022-11-08T02:55:17.911Z,9.04
2022-11-08T03:00:21.019Z,8.78
2022-11-08T03:05:25.346Z,8.54
2022-11-08T03:10:29.018Z,8.33
2022-11-08T03:15:32.931Z,8.18
2022-11-08T03:20:35.898Z,9.29
2022-11-08T03:25:38.795Z,12.59
2022-11-08T03:30:42.036Z,13.26
2022-11-08T03:35:44.918Z,11.70
2022-11-08T03:40:48.128Z,10.79
2022-11-08T03:45:51.000Z,10.17
2022-11-08T03:50:53.898Z,9.68
2022-11-08T03:55:59.938Z,9.24
2022-11-08T04:01:07.168Z,8.87
2022-11-08T04:06:10.678Z,8.57
2022-11-08T04:11:32.115Z,8.34
2022-11-08T04:16:35.167Z,8.14
2022-11-08T04:21:38.148Z,8.03
2022-11-08T04:26:41.338Z,7.93
2022-11-08T04:31:44.202Z,9.04
2022-11-08T04:36:47.137Z,12.35
2022-11-08T04:41:50.003Z,12.95
2022-11-08T04:46:53.040Z,11.42
2022-11-08T04:51:56.173Z,10.53
2022-11-08T04:56:59.099Z,9.94
2022-11-08T05:02:03.398Z,9.47
2022-11-08T05:07:06.672Z,9.06
2022-11-08T05:12:09.526Z,8.71
2022-11-08T05:17:12.531Z,8.39
2022-11-08T05:22:34.019Z,8.20
2022-11-08T05:27:36.952Z,8.09
2022-11-08T05:32:39.844Z,7.98
2022-11-08T05:37:42.718Z,7.88
2022-11-08T05:42:45.593Z,9.01
2022-11-08T05:47:48.554Z,12.22
2022-11-08T05:52:54.362Z,12.76
2022-11-08T05:57:57.404Z,11.26
2022-11-08T06:03:03.737Z,10.34
2022-11-08T06:08:06.673Z,9.71
2022-11-08T06:13:09.531Z,9.28
2022-11-08T06:18:12.437Z,8.98
2022-11-08T06:23:15.485Z,8.74
2022-11-08T06:28:19.004Z,8.50
2022-11-08T06:33:22.340Z,8.30
2022-11-08T06:38:25.847Z,8.17
2022-11-08T06:43:29.025Z,9.33
2022-11-08T06:48:35.873Z,12.54
2022-11-08T06:53:39.292Z,13.28
2022-11-08T06:58:42.574Z,11.81
2022-11-08T07:03:45.744Z,10.94
2022-11-08T07:08:49.058Z,10.41
2022-11-08T07:13:52.010Z,10.00
2022-11-08T07:18:55.840Z,9.71
2022-11-08T07:23:58.987Z,9.50
2022-11-08T07:29:02.288Z,9.35
2022-11-08T07:34:05.133Z,9.25
2022-11-08T07:39:08.061Z,10.24
2022-11-08T07:44:11.031Z,13.36
2022-11-08T07:49:14.027Z,14.35
2022-11-08T07:54:17.279Z,13.11
2022-11-08T07:59:20.132Z,12.45
2022-11-08T08:04:23.079Z,12.11
2022-11-08T08:09:26.072Z,11.88
2022-11-08T08:14:29.092Z,11.76
2022-11-08T08:19:32.153Z,11.74
2022-11-08T08:24:35.245Z,11.76
2022-11-08T08:29:38.204Z,11.79
2022-11-08T08:34:41.167Z,12.91
2022-11-08T08:39:44.303Z,15.98
2022-11-08T08:44:47.225Z,16.16
2022-11-08T08:49:50.263Z,15.14
2022-11-08T08:54:53.175Z,14.65
2022-11-08T09:05:19.294Z,14.19
2022-11-08T09:10:22.622Z,14.05
2022-11-08T09:15:25.577Z,13.98
2022-11-08T09:20:28.718Z,13.96
2022-11-08T09:25:31.922Z,14.01
2022-11-08T09:30:35.074Z,14.07
2022-11-08T09:35:38.289Z,14.16
2022-11-08T09:40:55.579Z,14.26
2022-11-08T09:45:59.147Z,14.37
2022-11-08T09:51:17.464Z,14.51
2022-11-08T09:56:28.447Z,14.64
2022-11-08T10:01:46.570Z,14.75
2022-11-08T10:07:07.824Z,14.89
2022-11-08T10:12:15.303Z,15.09
2022-11-08T10:17:36.351Z,15.28
2022-11-08T10:22:48.035Z,15.49
2022-11-08T10:27:54.877Z,15.76
2022-11-08T10:32:58.110Z,16.04
2022-11-08T10:38:03.436Z,16.29
2022-11-08T10:43:14.632Z,16.52
2022-11-08T10:48:17.928Z,16.72
2022-11-08T10:53:32.062Z,16.87
2022-11-08T10:58:40.890Z,16.98
2022-11-08T11:04:09.710Z,17.03
2022-11-08T11:09:24.291Z,17.05
2022-11-08T11:14:27.344Z,17.06
2022-11-08T11:19:30.772Z,17.09
2022-11-08T11:24:45.992Z,17.11
2022-11-08T11:29:48.914Z,17.15
2022-11-08T11:34:59.612Z,17.23
2022-11-08T11:40:30.136Z,17.35
2022-11-08T11:45:45.167Z,17.50
2022-11-08T11:50:50.107Z,17.63
2022-11-08T11:56:05.510Z,17.72
2022-11-08T12:01:33.146Z,17.82
2022-11-08T12:06:46.635Z,17.87
2022-11-08T12:11:55.065Z,17.91
2022-11-08T12:17:01.080Z,18.04
2022-11-08T12:22:25.747Z,18.40
2022-11-08T12:27:43.394Z,18.86
2022-11-08T12:33:14.678Z,19.22
2022-11-08T12:38:31.356Z,19.54
2022-11-08T12:44:01.456Z,19.75
2022-11-08T12:49:16.397Z,19.91
2022-11-08T12:54:21.617Z,19.99
2022-11-08T12:59:29.297Z,19.98
2022-11-08T13:04:51.111Z,19.96
2022-11-08T13:10:04.946Z,19.97
2022-11-08T13:15:25.117Z,20.04
2022-11-08T13:20:48.516Z,20.10
2022-11-08T13:25:53.044Z,20.11
2022-11-08T13:31:02.551Z,20.07
2022-11-08T13:36:47.248Z,19.90
2022-11-08T13:42:24.960Z,19.59
2022-11-08T13:47:33.584Z,19.27
2022-11-08T13:52:56.851Z,18.91
2022-11-08T13:54:01.032Z,18.85
2022-11-08T13:55:03.860Z,18.78
2022-11-08T13:56:06.607Z,18.73
2022-11-08T13:57:09.279Z,18.68
2022-11-08T13:59:20.055Z,18.55
2022-11-08T14:00:24.690Z,18.50
2022-11-08T14:01:51.001Z,18.47
2022-11-08T14:02:53.781Z,18.43
2022-11-08T14:03:56.506Z,18.40
2022-11-08T14:05:01.638Z,18.35
2022-11-08T14:06:06.653Z,18.31
2022-11-08T14:07:09.631Z,18.28
2022-11-08T14:17:12.280Z,18.03
2022-11-08T14:22:15.369Z,17.95
2022-11-08T14:27:18.065Z,17.78
2022-11-08T14:32:20.717Z,17.61
2022-11-08T14:37:23.415Z,17.43
2022-11-08T14:42:26.174Z,17.27
2022-11-08T14:47:30.347Z,17.12
2022-11-08T14:52:33.183Z,16.97
2022-11-08T14:57:36.349Z,16.82
2022-11-08T15:02:39.399Z,16.68
2022-11-08T15:07:42.151Z,16.54
2022-11-08T15:12:44.917Z,16.39
2022-11-08T15:17:47.623Z,16.23
2022-11-08T15:22:55.458Z,16.07
2022-11-08T15:27:59.300Z,15.92
2022-11-08T15:33:03.418Z,15.78
2022-11-08T15:38:06.100Z,15.65
2022-11-08T15:43:08.785Z,15.50
2022-11-08T15:48:11.707Z,15.38
2022-11-08T15:53:14.945Z,15.25
2022-11-08T15:58:17.838Z,15.12
2022-11-08T16:03:20.721Z,15.00
2022-11-08T16:08:25.694Z,14.87
2022-11-08T16:13:28.699Z,14.75
2022-11-08T16:18:34.277Z,14.64
2022-11-08T16:23:37.098Z,14.52
2022-11-08T16:28:40.031Z,14.43
2022-11-08T16:33:43.017Z,14.32
2022-11-08T16:38:45.709Z,14.23
2022-11-08T16:43:48.402Z,14.16
2022-11-08T16:48:51.099Z,14.09
2022-11-08T16:53:53.975Z,14.04
2022-11-08T16:58:56.827Z,13.94
2022-11-08T17:03:59.555Z,13.87
2022-11-08T17:09:02.368Z,13.80
2022-11-08T17:14:05.435Z,13.74
2022-11-08T17:19:08.539Z,13.68
2022-11-08T17:24:11.195Z,13.59
2022-11-08T17:29:13.966Z,13.51
2022-11-08T17:34:16.716Z,13.45
2022-11-08T17:39:19.421Z,13.37
2022-11-08T17:44:22.323Z,13.28
2022-11-08T17:49:24.971Z,13.21
2022-11-08T17:54:27.671Z,13.89
2022-11-08T17:59:30.403Z,16.94
2022-11-08T18:04:33.115Z,17.67
2022-11-08T18:09:35.816Z,16.30
2022-11-08T18:14:38.596Z,15.47
2022-11-08T18:19:41.336Z,14.91
2022-11-08T18:24:47.441Z,14.42
2022-11-08T18:29:52.697Z,13.99
2022-11-08T18:34:56.657Z,13.63
2022-11-08T18:39:59.390Z,13.34
2022-11-08T18:45:02.275Z,13.09
2022-11-08T18:50:05.626Z,12.89
2022-11-08T18:55:08.332Z,12.72
2022-11-08T19:00:11.013Z,12.54
2022-11-08T19:05:14.063Z,12.40
2022-11-08T19:10:25.886Z,13.27
2022-11-08T19:15:28.625Z,16.23
2022-11-08T19:20:31.322Z,16.59
2022-11-08T19:25:36.101Z,15.18
2022-11-08T19:30:39.133Z,14.33
2022-11-08T19:35:41.827Z,13.76
2022-11-08T19:40:47.355Z,13.28
2022-11-08T19:45:52.479Z,12.87
2022-11-08T19:50:55.814Z,12.52
2022-11-08T19:55:59.356Z,12.24
2022-11-08T20:01:02.866Z,12.00
2022-11-08T20:06:06.089Z,11.78
2022-11-08T20:11:09.448Z,11.60
2022-11-08T20:16:12.736Z,11.41
2022-11-08T20:21:15.840Z,11.29
2022-11-08T20:26:18.835Z,12.25
2022-11-08T20:31:23.018Z,15.17
2022-11-08T20:36:25.898Z,15.63
2022-11-08T20:41:30.070Z,14.21
2022-11-08T20:46:33.295Z,13.37
2022-11-08T20:51:36.125Z,12.78
2022-11-08T20:56:38.881Z,12.38
2022-11-08T21:01:41.888Z,12.05
2022-11-08T21:06:44.652Z,11.67
2022-11-08T21:11:47.633Z,11.32
2022-11-08T21:22:16.677Z,10.80
2022-11-08T21:27:19.473Z,10.63
2022-11-08T21:32:22.319Z,10.52
2022-11-08T21:37:25.008Z,10.40
2022-11-08T21:42:27.893Z,10.27
2022-11-08T21:47:30.664Z,11.17
2022-11-08T21:52:33.409Z,14.08
2022-11-08T21:57:36.137Z,14.66
2022-11-08T22:02:38.843Z,13.25
2022-11-08T22:07:41.626Z,12.41
2022-11-08T22:12:44.443Z,11.81
2022-11-08T22:18:14.456Z,11.30
2022-11-08T22:23:10.101Z,10.89
2022-11-08T22:28:12.869Z,10.61
2022-11-08T22:33:15.809Z,10.32
2022-11-08T22:38:19.059Z,10.06
2022-11-08T22:43:21.950Z,9.83
2022-11-08T22:48:24.762Z,9.66
2022-11-08T22:53:27.624Z,9.52
2022-11-08T22:58:30.414Z,9.40
2022-11-08T23:03:33.496Z,10.26
2022-11-08T23:08:36.320Z,13.20
2022-11-08T23:13:58.026Z,13.98
2022-11-08T23:19:19.307Z,12.47
2022-11-08T23:24:22.149Z,11.55
2022-11-08T23:29:43.246Z,10.93
2022-11-08T23:34:46.058Z,10.42
2022-11-08T23:40:07.151Z,10.00
2022-11-08T23:45:09.947Z,9.60
2022-11-08T23:50:12.652Z,9.33
2022-11-08T23:55:15.308Z,9.12
